Terminal Aerodrome Forecast
Issued by NWS

Home | Current Version | Previous Version | Text Only | Print | Product List | Glossary On
Versions: 1 2 3 4 5 6 7 8 9 10 11 12 13 14
000
FTUS42 TJSJ 300559
TAFISX
TAF
TISX 300559Z 3006/3106 05007KT P6SM VCTS SCT020 BKN040CB OVC100
      TEMPO 3006/3007 5SM +RA BR BKN025 BKN040 OVC080
     FM301330 13010KT P6SM VCTS SCT022CB BKN040
     FM302300 09006KT P6SM VCSH SCT025 BKN070=

USA.gov is the U.S. government's official web portal to all federal, state and local government web resources and services.